Time;durP1;ratioP1;P1;durP2;ratioP2;P2;SDS_P1;SDS_P2;PMS_P1;PMS_P2;Temp;Humidity;BMP_temperature;BMP_pressure;BME280_temperature;BME280_humidity;BME280_pressure;Samples;Min_cycle;Max_cycle;Signal;HPM_P1;HPM_P2
2021/01/16 00:01:46;;;;;;;21.42;11.93;;;20.60;35.40;;;;;;4804138;29;20031;-71
2021/01/16 00:04:12;;;;;;;37.25;12.40;;;20.60;35.30;;;;;;4805939;29;20114;-75
2021/01/16 00:06:38;;;;;;;19.73;12.10;;;20.60;35.30;;;;;;4816882;29;20087;-76
2021/01/16 00:09:04;;;;;;;21.40;12.52;;;20.60;35.40;;;;;;4818162;29;20069;-75
2021/01/16 00:11:29;;;;;;;19.30;11.38;;;20.60;35.40;;;;;;4790853;29;20046;-75
2021/01/16 00:13:55;;;;;;;19.20;11.45;;;20.60;35.40;;;;;;4804360;29;20059;-74
2021/01/16 00:16:21;;;;;;;17.42;11.52;;;20.50;35.40;;;;;;4813808;29;20038;-75
2021/01/16 00:18:46;;;;;;;20.00;11.38;;;20.50;35.40;;;;;;4816740;29;20797;-70
2021/01/16 00:21:18;;;;;;;22.77;11.88;;;20.50;35.40;;;;;;4792854;29;20034;-70
2021/01/16 00:23:43;;;;;;;16.92;10.40;;;20.50;35.30;;;;;;4779249;29;20047;-70
2021/01/16 00:26:12;;;;;;;20.95;11.73;;;20.50;35.40;;;;;;4784598;29;20122;-70
2021/01/16 00:28:38;;;;;;;20.35;11.25;;;20.50;35.40;;;;;;4820714;29;20038;-70
2021/01/16 00:31:03;;;;;;;15.70;9.45;;;20.50;35.30;;;;;;4821349;29;20038;-70
2021/01/16 00:33:30;;;;;;;19.08;11.50;;;20.50;35.30;;;;;;4789906;29;20087;-74
2021/01/16 00:35:57;;;;;;;21.15;11.50;;;20.40;35.30;;;;;;4816588;29;20062;-75
2021/01/16 00:38:27;;;;;;;24.45;10.82;;;20.40;35.30;;;;;;4789572;29;20054;-74
2021/01/16 00:40:53;;;;;;;19.55;12.10;;;20.40;35.30;;;;;;4814047;29;20065;-75
2021/01/16 00:43:19;;;;;;;22.67;11.27;;;20.40;35.30;;;;;;4822333;29;20091;-75
2021/01/16 00:45:45;;;;;;;19.30;9.90;;;20.40;35.30;;;;;;4789341;29;20048;-75
2021/01/16 00:48:15;;;;;;;21.40;15.07;;;20.40;35.40;;;;;;4803864;29;20073;-73
2021/01/16 00:50:42;;;;;;;18.17;11.95;;;20.30;35.90;;;;;;4792214;29;20030;-75
2021/01/16 00:53:07;;;;;;;18.25;11.43;;;20.40;35.30;;;;;;4804428;29;20043;-75
2021/01/16 00:55:35;;;;;;;23.83;13.57;;;20.30;35.30;;;;;;4798531;29;20037;-75
2021/01/16 00:58:12;;;;;;;24.50;13.20;;;20.30;35.50;;;;;;4818039;29;20034;-75
2021/01/16 01:00:39;;;;;;;20.55;10.45;;;20.30;35.60;;;;;;4804637;29;20056;-74
2021/01/16 01:03:05;;;;;;;23.25;12.52;;;20.30;35.60;;;;;;4805340;29;20023;-75
2021/01/16 01:05:31;;;;;;;19.48;12.40;;;20.30;35.60;;;;;;4802272;29;20031;-75
2021/01/16 01:07:56;;;;;;;20.20;12.45;;;20.30;35.60;;;;;;4813445;29;20035;-75
2021/01/16 01:10:33;;;;;;;18.08;11.52;;;20.30;35.60;;;;;;4802732;29;20572;-75
2021/01/16 01:12:59;;;;;;;17.95;10.45;;;20.30;35.50;;;;;;4788997;29;20039;-75
2021/01/16 01:18:46;;;;;;;18.50;10.80;;;20.20;35.50;;;;;;4818472;29;20144;-74
2021/01/16 01:21:13;;;;;;;23.60;13.07;;;20.20;35.50;;;;;;4818408;29;20560;-75
2021/01/16 01:23:42;;;;;;;18.05;12.43;;;20.20;35.50;;;;;;4812720;29;20411;-74
2021/01/16 01:26:07;;;;;;;17.63;11.15;;;20.20;35.50;;;;;;4820159;29;20083;-70
2021/01/16 01:28:33;;;;;;;20.58;10.95;;;20.10;35.40;;;;;;4808694;29;20504;-70
2021/01/16 01:30:58;;;;;;;17.55;10.30;;;20.10;35.50;;;;;;4824910;29;20062;-70
2021/01/16 01:33:24;;;;;;;16.00;9.80;;;20.10;35.60;;;;;;4821351;29;20064;-70
2021/01/16 01:35:49;;;;;;;17.92;10.45;;;20.20;35.60;;;;;;4782981;29;20794;-70
2021/01/16 01:38:16;;;;;;;17.52;10.25;;;20.20;35.50;;;;;;4817217;29;20042;-70
2021/01/16 01:40:42;;;;;;;15.90;10.23;;;20.20;35.50;;;;;;4818843;29;20098;-70
2021/01/16 01:43:07;;;;;;;18.92;13.65;;;20.20;35.50;;;;;;4816831;29;20109;-70
2021/01/16 01:45:33;;;;;;;13.38;9.65;;;20.20;35.40;;;;;;4829479;29;20031;-75
2021/01/16 01:47:59;;;;;;;18.98;10.25;;;20.20;35.40;;;;;;4815981;29;20058;-75
2021/01/16 01:50:24;;;;;;;17.40;9.38;;;20.10;35.30;;;;;;4807110;29;20037;-75
2021/01/16 01:52:50;;;;;;;16.35;9.07;;;20.20;35.50;;;;;;4791342;29;20487;-75
2021/01/16 01:55:16;;;;;;;18.63;10.23;;;20.20;35.50;;;;;;4824609;29;20471;-75
2021/01/16 01:57:49;;;;;;;17.40;9.40;;;20.10;35.40;;;;;;4807346;29;20034;-76
2021/01/16 02:00:15;;;;;;;18.38;9.48;;;20.10;35.40;;;;;;4790584;29;20395;-75
2021/01/16 02:02:43;;;;;;;19.45;9.77;;;20.10;35.40;;;;;;4808015;29;20452;-76
2021/01/16 02:05:09;;;;;;;18.27;10.25;;;20.10;35.40;;;;;;4821569;29;20019;-74
2021/01/16 02:07:37;;;;;;;18.85;10.65;;;20.10;35.40;;;;;;4804660;29;20503;-75
2021/01/16 02:10:22;;;;;;;16.33;12.23;;;20.10;35.40;;;;;;4804208;29;20046;-74
2021/01/16 02:12:52;;;;;;;13.70;9.68;;;20.10;35.50;;;;;;4825368;29;20121;-75
2021/01/16 02:15:36;;;;;;;16.67;9.65;;;20.10;35.50;;;;;;4825398;29;20034;-75
2021/01/16 02:18:17;;;;;;;15.82;8.90;;;20.10;35.60;;;;;;4826933;29;20034;-75
2021/01/16 02:20:44;;;;;;;19.17;10.57;;;20.10;35.70;;;;;;4825357;29;20581;-75
2021/01/16 02:23:12;;;;;;;17.23;10.77;;;20.00;35.70;;;;;;4820614;29;20035;-75
2021/01/16 02:25:40;;;;;;;14.75;8.95;;;20.00;35.70;;;;;;4823197;29;20034;-74
2021/01/16 02:28:14;;;;;;;17.23;9.52;;;20.00;35.70;;;;;;4827547;29;20034;-75
2021/01/16 02:30:40;;;;;;;2.47;1.35;;;20.00;35.70;;;;;;4801600;29;20488;-74
2021/01/16 02:33:08;;;;;;;1.67;1.10;;;20.00;35.70;;;;;;4823861;29;20077;-74
2021/01/16 02:35:36;;;;;;;1.15;0.60;;;20.00;35.60;;;;;;4795085;29;20617;-75
2021/01/16 02:38:08;;;;;;;0.40;0.40;;;20.00;35.60;;;;;;4808342;29;20073;-69
2021/01/16 02:40:46;;;;;;;2.65;0.75;;;20.00;35.70;;;;;;4834537;29;20120;-69
2021/01/16 02:43:23;;;;;;;0.55;0.30;;;20.00;35.70;;;;;;4806145;29;20495;-69
2021/01/16 02:45:57;;;;;;;1.85;0.52;;;20.00;35.70;;;;;;4820272;29;20027;-69
2021/01/16 02:48:29;;;;;;;0.70;0.70;;;20.00;35.70;;;;;;4823952;29;20032;-70
2021/01/16 02:50:55;;;;;;;0.93;0.45;;;20.00;35.60;;;;;;4812989;29;20039;-70
2021/01/16 02:53:21;;;;;;;0.30;0.30;;;20.00;35.60;;;;;;4808500;29;20427;-70
2021/01/16 02:55:48;;;;;;;1.08;0.82;;;19.90;35.60;;;;;;4793177;29;20046;-70
2021/01/16 02:58:14;;;;;;;2.08;0.63;;;19.90;35.70;;;;;;4823021;29;20034;-70
2021/01/16 03:00:40;;;;;;;0.63;0.50;;;19.90;35.70;;;;;;4792851;29;20126;-70
2021/01/16 03:03:06;;;;;;;1.38;0.73;;;19.90;35.80;;;;;;4816634;29;20109;-70
2021/01/16 03:05:31;;;;;;;0.45;0.45;;;19.90;35.70;;;;;;4823828;29;20034;-71
2021/01/16 03:07:57;;;;;;;1.27;1.17;;;19.90;36.40;;;;;;4824625;29;20187;-71
2021/01/16 03:10:23;;;;;;;0.43;0.43;;;19.90;35.70;;;;;;4807340;29;20046;-70
2021/01/16 03:12:50;;;;;;;0.50;0.50;;;19.90;35.60;;;;;;4789390;29;20042;-70
2021/01/16 03:15:17;;;;;;;0.63;0.63;;;19.90;35.60;;;;;;4807836;29;20038;-70
2021/01/16 03:17:55;;;;;;;0.60;0.60;;;19.90;35.70;;;;;;4792732;29;20423;-71
2021/01/16 03:20:28;;;;;;;2.40;1.17;;;19.90;35.70;;;;;;4822937;29;20076;-70
2021/01/16 03:22:54;;;;;;;0.32;0.20;;;19.90;35.60;;;;;;4809155;29;20065;-70
2021/01/16 03:25:21;;;;;;;1.40;1.15;;;19.90;35.50;;;;;;4812785;29;20399;-70
2021/01/16 03:27:47;;;;;;;0.50;0.45;;;19.90;35.50;;;;;;4824766;29;20060;-70
2021/01/16 03:30:13;;;;;;;0.73;0.73;;;19.90;35.50;;;;;;4807677;29;20555;-70
2021/01/16 03:32:43;;;;;;;0.60;0.60;;;19.90;35.40;;;;;;4792433;29;20106;-70
2021/01/16 03:35:09;;;;;;;1.25;0.70;;;19.90;35.50;;;;;;4823841;29;20113;-70
2021/01/16 03:37:35;;;;;;;1.33;0.95;;;19.90;35.50;;;;;;4821323;29;20110;-70
2021/01/16 03:40:01;;;;;;;2.35;1.33;;;19.80;35.40;;;;;;4792590;29;20121;-70
2021/01/16 03:42:35;;;;;;;0.68;0.68;;;19.80;35.50;;;;;;4832397;29;20022;-70
2021/01/16 03:45:09;;;;;;;1.27;0.83;;;19.90;36.20;;;;;;4824023;29;20050;-75
2021/01/16 03:47:34;;;;;;;0.10;0.10;;;19.90;35.50;;;;;;4807282;29;20415;-76
2021/01/16 03:50:00;;;;;;;0.30;0.25;;;19.80;35.40;;;;;;4810902;29;20072;-75
2021/01/16 03:52:34;;;;;;;0.45;0.40;;;19.80;35.50;;;;;;4808396;29;20093;-75
2021/01/16 03:55:00;;;;;;;4.00;1.13;;;19.80;35.60;;;;;;4792435;29;20125;-75
2021/01/16 03:57:26;;;;;;;0.63;0.17;;;19.80;35.60;;;;;;4807343;29;20137;-75
2021/01/16 03:59:52;;;;;;;0.40;0.32;;;19.80;35.60;;;;;;4823287;29;20542;-75
2021/01/16 04:02:18;;;;;;;0.75;0.40;;;19.80;35.60;;;;;;4822639;29;20030;-76
2021/01/16 04:04:47;;;;;;;0.30;0.30;;;19.80;35.60;;;;;;4791711;29;20125;-75
2021/01/16 04:07:12;;;;;;;0.90;0.68;;;19.70;35.60;;;;;;4806282;29;20046;-75
2021/01/16 04:09:38;;;;;;;1.25;0.43;;;19.70;35.60;;;;;;4805809;29;20163;-75
2021/01/16 04:12:04;;;;;;;13.45;0.75;;;19.70;35.60;;;;;;4822188;29;20068;-75
2021/01/16 04:14:30;;;;;;;0.22;0.22;;;19.70;35.70;;;;;;4812250;29;20038;-75
2021/01/16 04:16:56;;;;;;;1.25;1.17;;;19.70;35.90;;;;;;4824293;29;20103;-75
2021/01/16 04:19:21;;;;;;;0.43;0.43;;;19.70;35.90;;;;;;4807040;29;20045;-75
2021/01/16 04:21:47;;;;;;;0.43;0.20;;;19.70;35.90;;;;;;4790057;29;20054;-75
2021/01/16 04:24:16;;;;;;;0.65;0.52;;;19.70;35.80;;;;;;4818185;29;20030;-75
2021/01/16 04:26:41;;;;;;;0.15;0.15;;;19.70;35.70;;;;;;4823184;29;20056;-76
2021/01/16 04:29:07;;;;;;;0.50;0.50;;;19.70;35.70;;;;;;4823409;29;20034;-75
2021/01/16 04:31:32;;;;;;;4.10;0.50;;;19.70;35.70;;;;;;4807363;29;20680;-75
2021/01/16 04:34:01;;;;;;;7.70;1.15;;;19.70;35.80;;;;;;4825917;29;20506;-74
2021/01/16 04:36:27;;;;;;;0.55;0.38;;;19.60;35.70;;;;;;4823367;29;20045;-74
2021/01/16 04:38:52;;;;;;;3.55;1.35;;;19.60;35.70;;;;;;4819227;29;20039;-74
2021/01/16 04:41:19;;;;;;;0.10;0.10;;;19.60;35.70;;;;;;4821947;29;20050;-74
2021/01/16 04:43:46;;;;;;;1.35;0.45;;;19.60;35.70;;;;;;4823403;29;20507;-74
2021/01/16 04:46:21;;;;;;;2.83;0.75;;;19.60;35.70;;;;;;4805378;29;20039;-74
2021/01/16 04:48:49;;;;;;;0.30;0.30;;;19.50;35.80;;;;;;4811274;29;20045;-74
2021/01/16 04:51:15;;;;;;;0.25;0.25;;;19.60;35.70;;;;;;4791517;29;20060;-74
2021/01/16 04:53:41;;;;;;;0.50;0.50;;;19.60;35.70;;;;;;4790289;29;20034;-74
2021/01/16 04:56:10;;;;;;;3.70;0.68;;;19.60;35.70;;;;;;4823573;29;20113;-76
2021/01/16 04:58:37;;;;;;;0.57;0.52;;;19.60;35.70;;;;;;4823608;29;20038;-75
2021/01/16 05:01:07;;;;;;;1.35;0.50;;;19.60;35.70;;;;;;4799619;29;20042;-75
2021/01/16 05:03:36;;;;;;;0.10;0.10;;;19.60;35.60;;;;;;4794004;29;20027;-74
2021/01/16 05:06:12;;;;;;;0.10;0.10;;;19.60;35.70;;;;;;4791111;29;20046;-73
2021/01/16 05:08:39;;;;;;;0.30;0.30;;;19.60;35.60;;;;;;4792516;29;20046;-74
2021/01/16 05:11:43;;;;;;;0.30;0.30;;;19.60;35.70;;;;;;4822659;29;20435;-73
2021/01/16 05:14:14;;;;;;;0.10;0.10;;;19.60;35.60;;;;;;4733130;30;20048;-73
2021/01/16 05:16:48;;;;;;;0.82;0.82;;;19.60;35.60;;;;;;4745667;30;20044;-73
2021/01/16 05:19:17;;;;;;;5.22;1.40;;;19.60;35.70;;;;;;4747625;30;20557;-69
2021/01/16 05:21:42;;;;;;;0.10;0.10;;;19.60;35.70;;;;;;4740157;30;20510;-70
2021/01/16 05:24:10;;;;;;;0.05;0.05;;;19.60;35.60;;;;;;4748132;30;20045;-68
2021/01/16 05:26:39;;;;;;;0.15;0.15;;;19.60;35.70;;;;;;4748559;30;20036;-70
2021/01/16 05:29:04;;;;;;;0.63;0.50;;;19.60;36.30;;;;;;4741651;30;20036;-69
2021/01/16 05:31:30;;;;;;;0.52;0.52;;;19.60;35.60;;;;;;4749507;30;20052;-70
2021/01/16 05:33:55;;;;;;;0.25;0.25;;;19.60;35.70;;;;;;4752267;30;20071;-70
2021/01/16 05:37:07;;;;;;;0.15;0.15;;;19.60;35.80;;;;;;4753492;30;20059;-69
2021/01/16 05:39:33;;;;;;;0.55;0.45;;;19.60;35.80;;;;;;4747320;30;20048;-70
2021/01/16 05:42:01;;;;;;;0.15;0.15;;;19.60;36.00;;;;;;4745175;30;20040;-70
2021/01/16 05:44:27;;;;;;;0.50;0.50;;;19.60;36.00;;;;;;4752565;30;20059;-70
2021/01/16 05:46:53;;;;;;;0.50;0.50;;;19.60;36.00;;;;;;4722231;30;20040;-76
2021/01/16 05:49:21;;;;;;;0.50;0.50;;;19.60;36.20;;;;;;4745308;30;20044;-76
2021/01/16 05:51:46;;;;;;;0.20;0.20;;;19.60;36.20;;;;;;4799542;29;20034;-76
2021/01/16 05:54:16;;;;;;;0.10;0.10;;;19.60;36.00;;;;;;4826199;29;20113;-76
2021/01/16 05:56:42;;;;;;;0.73;0.60;;;19.60;36.20;;;;;;4809730;29;20040;-75
2021/01/16 05:59:11;;;;;;;1.13;0.32;;;19.60;36.20;;;;;;4803165;29;20133;-75
2021/01/16 06:01:37;;;;;;;1.17;0.65;;;19.60;36.20;;;;;;4808167;29;20035;-75
2021/01/16 06:04:44;;;;;;;1.50;1.02;;;19.50;36.20;;;;;;4809581;29;20487;-74
2021/01/16 06:07:09;;;;;;;1.15;0.30;;;19.50;36.30;;;;;;4821015;29;20087;-74
2021/01/16 06:09:36;;;;;;;0.50;0.50;;;19.50;36.20;;;;;;4793734;29;20416;-71
2021/01/16 06:12:03;;;;;;;0.57;0.50;;;19.50;36.30;;;;;;4796780;29;20054;-74
2021/01/16 06:14:29;;;;;;;0.43;0.43;;;19.50;36.30;;;;;;4801821;29;20112;-74
2021/01/16 06:16:55;;;;;;;0.20;0.15;;;19.50;36.20;;;;;;4806505;29;20072;-74
2021/01/16 06:19:24;;;;;;;0.00;0.00;;;19.50;36.30;;;;;;4811814;29;20053;-72
2021/01/16 06:21:50;;;;;;;0.85;0.65;;;19.50;36.40;;;;;;4819142;29;20089;-73
2021/01/16 06:24:21;;;;;;;1.08;0.40;;;19.50;36.30;;;;;;4825638;29;20065;-73
2021/01/16 06:26:55;;;;;;;2.88;0.77;;;19.50;36.30;;;;;;4792299;29;20041;-73
2021/01/16 06:29:28;;;;;;;0.52;0.52;;;19.50;36.40;;;;;;4805761;29;20053;-72
2021/01/16 06:32:08;;;;;;;0.22;0.20;;;19.50;36.30;;;;;;4813380;29;20045;-72
2021/01/16 06:34:42;;;;;;;0.45;0.38;;;19.50;36.30;;;;;;4808792;29;20084;-73
2021/01/16 06:37:09;;;;;;;0.13;0.13;;;19.50;36.40;;;;;;4825472;29;20078;-74
2021/01/16 06:39:43;;;;;;;0.20;0.20;;;19.50;36.30;;;;;;4806698;29;20039;-73
2021/01/16 06:42:12;;;;;;;0.17;0.17;;;19.60;36.20;;;;;;4827513;29;20031;-71
2021/01/16 06:44:39;;;;;;;1.48;1.38;;;19.60;36.20;;;;;;4825245;29;20046;-74
2021/01/16 06:47:04;;;;;;;0.50;0.50;;;19.70;36.10;;;;;;4793143;29;20035;-72
2021/01/16 06:49:31;;;;;;;0.93;0.70;;;19.80;36.00;;;;;;4792834;29;20091;-72
2021/01/16 06:51:58;;;;;;;0.57;0.40;;;19.80;35.90;;;;;;4824587;29;20088;-69
2021/01/16 06:54:25;;;;;;;0.40;0.40;;;19.90;35.90;;;;;;4794348;29;20045;-69
2021/01/16 06:57:11;;;;;;;4.85;2.05;;;20.00;35.70;;;;;;4805035;29;20055;-69
2021/01/16 06:59:38;;;;;;;0.52;0.22;;;20.10;35.60;;;;;;4791380;29;20423;-69
2021/01/16 07:02:38;;;;;;;0.30;0.30;;;20.20;35.50;;;;;;4822978;29;20033;-69
2021/01/16 07:05:30;;;;;;;0.52;0.10;;;20.30;36.10;;;;;;4823527;29;20069;-69
2021/01/16 07:07:56;;;;;;;3.67;0.80;;;20.30;35.40;;;;;;4820559;29;20046;-69
2021/01/16 07:10:23;;;;;;;0.10;0.10;;;20.40;35.40;;;;;;4792029;29;20584;-69
2021/01/16 07:12:50;;;;;;;0.10;0.10;;;20.40;35.40;;;;;;4823103;29;20043;-69
2021/01/16 07:15:21;;;;;;;0.25;0.25;;;20.50;35.20;;;;;;4804723;29;20061;-69
2021/01/16 07:17:48;;;;;;;5.93;1.00;;;20.50;35.20;;;;;;4808103;29;20038;-69
2021/01/16 07:20:13;;;;;;;0.47;0.47;;;20.50;35.10;;;;;;4779046;29;20059;-69
2021/01/16 07:22:41;;;;;;;0.32;0.30;;;20.50;35.00;;;;;;4791360;29;20522;-75
2021/01/16 07:25:08;;;;;;;0.30;0.20;;;20.60;35.00;;;;;;4803710;29;20471;-69
2021/01/16 07:27:34;;;;;;;1.08;0.75;;;20.60;34.80;;;;;;4793072;29;20027;-69
2021/01/16 07:30:00;;;;;;;9.85;1.02;;;20.60;34.70;;;;;;4820933;29;20037;-68
2021/01/16 07:32:32;;;;;;;0.20;0.20;;;20.60;34.60;;;;;;4808626;29;20046;-74
2021/01/16 07:34:57;;;;;;;0.82;0.22;;;20.60;34.80;;;;;;4815882;29;20125;-69
2021/01/16 07:37:23;;;;;;;0.20;0.20;;;20.70;35.50;;;;;;4793147;29;20042;-69
2021/01/16 07:39:48;;;;;;;0.38;0.20;;;20.70;34.80;;;;;;4824328;29;20502;-73
2021/01/16 07:42:14;;;;;;;1.52;0.52;;;20.70;34.80;;;;;;4790825;29;20026;-73
2021/01/16 07:44:45;;;;;;;0.45;0.28;;;20.70;34.80;;;;;;4805612;29;20053;-73
2021/01/16 07:47:21;;;;;;;0.28;0.28;;;20.70;34.80;;;;;;4793026;29;20127;-73
2021/01/16 07:49:57;;;;;;;0.60;0.60;;;20.80;34.80;;;;;;4802121;29;20026;-69
2021/01/16 07:52:27;;;;;;;0.65;0.35;;;20.80;34.80;;;;;;4802581;29;20027;-70
2021/01/16 07:55:07;;;;;;;2.42;0.80;;;20.80;34.70;;;;;;4804024;29;20144;-69
2021/01/16 07:57:35;;;;;;;0.75;0.63;;;20.80;34.70;;;;;;4808862;29;20023;-69
2021/01/16 08:00:06;;;;;;;0.30;0.20;;;20.80;34.60;;;;;;4804905;29;20045;-70
2021/01/16 08:02:33;;;;;;;0.35;0.35;;;20.80;34.50;;;;;;4820998;29;20109;-69
2021/01/16 08:05:02;;;;;;;8.80;1.25;;;20.90;34.40;;;;;;4791815;29;20114;-70
2021/01/16 08:07:59;;;;;;;0.08;0.08;;;20.90;34.40;;;;;;4805593;29;20053;-70
2021/01/16 08:10:25;;;;;;;;;;;20.90;34.20;;;;;;4738066;30;20536;-70
2021/01/16 08:12:51;;;;;;;0.90;0.82;;;21.00;34.20;;;;;;4748474;30;20426;-70
2021/01/16 08:15:17;;;;;;;5.53;1.45;;;21.00;34.10;;;;;;4748124;30;20145;-70
2021/01/16 08:17:44;;;;;;;3.75;0.70;;;21.00;34.10;;;;;;4747049;30;20055;-70
2021/01/16 08:20:19;;;;;;;0.85;0.65;;;21.00;34.00;;;;;;4739001;30;21822;-73
2021/01/16 08:22:51;;;;;;;1.20;1.15;;;21.00;34.00;;;;;;4741322;30;20054;-70
2021/01/16 08:25:23;;;;;;;0.22;0.22;;;21.00;34.00;;;;;;4754318;30;20060;-70
2021/01/16 08:27:53;;;;;;;3.47;0.45;;;21.00;34.10;;;;;;4754448;30;20048;-70
2021/01/16 08:30:23;;;;;;;0.63;0.52;;;21.00;34.00;;;;;;4749722;30;20043;-70
2021/01/16 08:32:58;;;;;;;1.17;0.98;;;21.00;34.20;;;;;;4748418;30;20063;-70
2021/01/16 08:35:29;;;;;;;1.10;0.50;;;21.00;34.00;;;;;;4749140;30;20127;-69
2021/01/16 08:38:15;;;;;;;0.20;0.20;;;21.00;34.10;;;;;;4748707;30;20044;-70
2021/01/16 08:40:41;;;;;;;0.40;0.40;;;20.90;34.00;;;;;;4747566;30;21885;-74
2021/01/16 08:43:06;;;;;;;0.20;0.15;;;20.90;34.00;;;;;;4753454;30;20119;-73
2021/01/16 08:45:32;;;;;;;0.25;0.25;;;21.00;34.10;;;;;;4748305;30;20032;-74
2021/01/16 08:48:04;;;;;;;0.25;0.25;;;20.90;34.00;;;;;;4800587;29;20107;-73
2021/01/16 08:50:34;;;;;;;0.65;0.38;;;21.00;34.00;;;;;;4802096;29;20104;-73
2021/01/16 08:53:19;;;;;;;0.95;0.63;;;20.90;33.90;;;;;;4825773;29;20485;-73
2021/01/16 08:55:45;;;;;;;0.20;0.20;;;20.90;33.90;;;;;;4820943;29;20035;-74
2021/01/16 08:58:11;;;;;;;0.52;0.52;;;20.90;33.90;;;;;;4807046;29;20523;-73
2021/01/16 09:00:37;;;;;;;0.43;0.32;;;20.90;33.90;;;;;;4793571;29;20057;-72
2021/01/16 09:03:11;;;;;;;0.20;0.20;;;20.90;34.00;;;;;;4795895;29;20051;-72
2021/01/16 09:05:38;;;;;;;0.00;0.00;;;21.00;34.00;;;;;;4809971;29;20026;-73
2021/01/16 09:08:16;;;;;;;0.60;0.35;;;21.00;34.00;;;;;;4809131;29;20111;-73
2021/01/16 09:10:42;;;;;;;0.63;0.40;;;21.00;34.00;;;;;;4806677;29;20054;-73
2021/01/16 09:13:27;;;;;;;0.00;0.00;;;21.00;33.90;;;;;;4807713;29;20082;-73
2021/01/16 09:15:54;;;;;;;0.10;0.10;;;21.00;33.80;;;;;;4808407;29;20506;-72
2021/01/16 09:18:19;;;;;;;1.13;0.45;;;21.00;33.80;;;;;;4803929;29;20034;-72
2021/01/16 09:20:54;;;;;;;0.10;0.10;;;21.00;33.90;;;;;;4782879;29;20061;-73
2021/01/16 09:23:20;;;;;;;0.67;0.30;;;21.00;33.80;;;;;;4822213;29;20030;-73
2021/01/16 09:25:47;;;;;;;1.17;0.52;;;21.00;33.90;;;;;;4810857;29;20328;-73
2021/01/16 09:28:53;;;;;;;0.57;0.57;;;21.00;33.80;;;;;;4799768;29;20562;-73
2021/01/16 09:31:28;;;;;;;0.55;0.52;;;21.00;33.80;;;;;;4800708;29;20460;-73
2021/01/16 09:33:57;;;;;;;0.63;0.63;;;21.00;33.80;;;;;;4817755;29;20114;-73
2021/01/16 09:36:44;;;;;;;2.45;0.75;;;21.00;33.80;;;;;;4818031;29;20063;-73
2021/01/16 09:39:15;;;;;;;0.13;0.13;;;21.00;33.80;;;;;;4812619;29;20492;-73
2021/01/16 09:41:41;;;;;;;0.00;0.00;;;21.00;33.70;;;;;;4814929;29;20039;-73
2021/01/16 09:44:06;;;;;;;14.70;1.27;;;21.00;33.70;;;;;;4824609;29;20030;-73
2021/01/16 09:46:33;;;;;;;0.35;0.35;;;21.00;33.70;;;;;;4808145;29;20033;-73
2021/01/16 09:48:59;;;;;;;0.57;0.57;;;21.00;33.70;;;;;;4792320;29;20050;-73
2021/01/16 09:51:28;;;;;;;0.00;0.00;;;21.00;33.60;;;;;;4792791;29;20034;-73
2021/01/16 09:53:54;;;;;;;0.00;0.00;;;20.90;33.50;;;;;;4820258;29;20406;-73
2021/01/16 09:56:40;;;;;;;2.75;0.50;;;21.00;33.60;;;;;;4803387;29;20122;-74
2021/01/16 09:59:05;;;;;;;0.10;0.10;;;20.90;33.50;;;;;;4825233;29;20482;-73
2021/01/16 10:01:31;;;;;;;0.00;0.00;;;21.00;33.60;;;;;;4806967;29;20166;-73
2021/01/16 10:04:03;;;;;;;0.00;0.00;;;21.00;33.50;;;;;;4794262;29;20031;-73
2021/01/16 10:06:34;;;;;;;0.40;0.35;;;21.00;33.40;;;;;;4807901;29;20030;-73
2021/01/16 10:09:00;;;;;;;0.38;0.38;;;21.00;33.40;;;;;;4818655;29;20389;-73
2021/01/16 10:11:52;;;;;;;0.00;0.00;;;21.00;33.50;;;;;;4818030;29;20079;-74
2021/01/16 10:14:58;;;;;;;0.43;0.28;;;20.90;33.40;;;;;;4800474;29;20050;-74
2021/01/16 10:17:25;;;;;;;0.73;0.70;;;21.00;33.40;;;;;;4821949;29;20035;-73
2021/01/16 10:19:51;;;;;;;1.95;0.45;;;20.90;33.40;;;;;;4807661;29;20122;-73
2021/01/16 10:22:17;;;;;;;0.25;0.25;;;21.00;33.50;;;;;;4786025;29;20035;-74
2021/01/16 10:24:43;;;;;;;0.65;0.38;;;20.90;33.30;;;;;;4764837;29;20035;-70
2021/01/16 10:27:09;;;;;;;0.20;0.20;;;21.00;33.40;;;;;;4799205;29;20078;-70
2021/01/16 10:29:38;;;;;;;0.00;0.00;;;21.00;33.40;;;;;;4814774;29;20121;-70
2021/01/16 10:32:23;;;;;;;0.52;0.52;;;21.00;33.30;;;;;;4794268;29;20035;-70
2021/01/16 10:34:49;;;;;;;0.80;0.30;;;21.00;33.30;;;;;;4801132;29;20129;-70
2021/01/16 10:37:15;;;;;;;0.90;0.45;;;20.90;33.30;;;;;;4812504;29;20459;-70
2021/01/16 10:39:41;;;;;;;1.00;0.15;;;21.00;33.30;;;;;;4793820;29;20061;-70
2021/01/16 10:42:16;;;;;;;0.20;0.20;;;21.00;33.30;;;;;;4821894;29;20125;-70
2021/01/16 10:48:17;;;;;;;0.32;0.32;;;20.90;33.20;;;;;;4822831;29;20037;-70
2021/01/16 10:50:44;;;;;;;0.10;0.10;;;20.90;33.20;;;;;;4805380;29;20030;-69
2021/01/16 10:53:10;;;;;;;0.10;0.10;;;20.90;33.30;;;;;;4824803;29;20061;-70
2021/01/16 10:55:54;;;;;;;0.43;0.20;;;20.80;33.20;;;;;;4817197;29;20494;-71
2021/01/16 10:58:26;;;;;;;0.20;0.20;;;20.80;33.10;;;;;;4821254;29;20407;-70
2021/01/16 11:00:56;;;;;;;0.35;0.35;;;20.80;33.30;;;;;;4805774;29;20411;-70
2021/01/16 11:03:31;;;;;;;0.20;0.20;;;20.70;33.10;;;;;;4791742;29;20035;-71
2021/01/16 11:06:08;;;;;;;1.02;0.20;;;20.80;33.30;;;;;;4790986;29;20045;-71
2021/01/16 11:08:37;;;;;;;0.10;0.10;;;20.80;33.30;;;;;;4811332;29;20113;-71
2021/01/16 11:11:22;;;;;;;1.10;0.70;;;20.80;33.10;;;;;;4803108;29;20054;-72
2021/01/16 11:13:47;;;;;;;0.13;0.08;;;20.80;33.00;;;;;;4820765;29;20038;-71
2021/01/16 11:16:15;;;;;;;0.25;0.25;;;20.90;33.00;;;;;;4790914;29;20457;-71
2021/01/16 11:18:41;;;;;;;0.03;0.03;;;20.90;33.00;;;;;;4791053;29;20046;-71
2021/01/16 11:21:08;;;;;;;0.10;0.00;;;20.90;33.00;;;;;;4790865;29;21395;-71
2021/01/16 11:23:43;;;;;;;0.00;0.00;;;20.80;32.70;;;;;;4789247;29;20050;-72
2021/01/16 11:26:12;;;;;;;0.35;0.35;;;20.90;32.70;;;;;;4810842;29;20061;-72
2021/01/16 11:28:56;;;;;;;0.00;0.00;;;20.90;32.80;;;;;;4790812;29;20530;-70
2021/01/16 11:31:30;;;;;;;1.65;1.55;;;20.90;32.80;;;;;;4815472;29;20039;-72
2021/01/16 11:34:07;;;;;;;0.85;0.10;;;20.90;32.90;;;;;;4812053;29;20137;-73
2021/01/16 11:37:12;;;;;;;0.20;0.20;;;20.90;32.90;;;;;;4819957;29;20105;-72
2021/01/16 11:39:54;;;;;;;0.03;0.03;;;20.90;32.90;;;;;;4775440;30;20047;-74
2021/01/16 11:42:19;;;;;;;0.55;0.55;;;20.90;32.80;;;;;;4785225;29;20031;-76
2021/01/16 11:44:52;;;;;;;8.15;1.35;;;20.90;32.80;;;;;;4770548;30;20087;-77
2021/01/16 11:47:18;;;;;;;0.35;0.35;;;20.90;32.30;;;;;;4740957;30;20035;-77
2021/01/16 11:49:44;;;;;;;0.15;0.15;;;20.90;32.40;;;;;;4770182;30;20047;-77
2021/01/16 11:52:09;;;;;;;0.28;0.28;;;20.90;32.90;;;;;;4769754;30;20043;-77
2021/01/16 11:54:35;;;;;;;1.45;0.65;;;20.90;31.90;;;;;;4786105;30;20518;-69
2021/01/16 11:57:01;;;;;;;1.08;0.80;;;20.90;31.80;;;;;;4768901;30;20591;-69
2021/01/16 11:59:26;;;;;;;1.20;0.90;;;20.90;31.60;;;;;;4755757;30;20049;-77
2021/01/16 12:01:53;;;;;;;3.53;0.90;;;20.80;31.40;;;;;;4755031;30;20548;-77
2021/01/16 12:04:18;;;;;;;0.73;0.70;;;20.80;31.80;;;;;;4755673;30;20130;-77
2021/01/16 12:06:44;;;;;;;0.17;0.17;;;20.80;30.90;;;;;;4769162;30;20047;-77
2021/01/16 12:09:13;;;;;;;0.75;0.75;;;20.80;31.00;;;;;;4755296;30;20461;-78
2021/01/16 12:11:54;;;;;;;0.20;0.20;;;20.80;31.00;;;;;;4806743;29;20042;-76
2021/01/16 12:14:20;;;;;;;0.30;0.15;;;20.70;30.70;;;;;;4807069;29;20030;-76
2021/01/16 12:16:46;;;;;;;0.05;0.05;;;20.70;30.90;;;;;;4790419;29;20571;-77
2021/01/16 12:19:15;;;;;;;0.43;0.43;;;20.70;30.70;;;;;;4798713;29;20118;-70
2021/01/16 12:21:44;;;;;;;1.27;0.40;;;20.70;30.70;;;;;;4821927;29;20114;-69
2021/01/16 12:24:10;;;;;;;0.35;0.35;;;20.70;30.50;;;;;;4804821;29;20380;-68
2021/01/16 12:26:36;;;;;;;0.63;0.40;;;20.70;30.70;;;;;;4777376;29;20034;-77
2021/01/16 12:29:01;;;;;;;0.22;0.22;;;20.70;30.60;;;;;;4791933;29;20133;-77
2021/01/16 12:31:27;;;;;;;1.17;0.28;;;20.70;30.60;;;;;;4776983;29;20096;-76
2021/01/16 12:33:53;;;;;;;0.43;0.38;;;20.70;30.30;;;;;;4822700;29;20090;-77
2021/01/16 12:36:21;;;;;;;2.65;0.90;;;20.70;30.60;;;;;;4821863;29;20042;-77
2021/01/16 12:38:50;;;;;;;1.67;0.85;;;20.70;30.60;;;;;;4805296;29;20129;-75
2021/01/16 12:41:23;;;;;;;1.33;0.43;;;20.70;30.60;;;;;;4782177;29;20419;-76
2021/01/16 12:43:50;;;;;;;1.17;0.20;;;20.70;30.70;;;;;;4807289;29;20038;-77
2021/01/16 12:46:31;;;;;;;0.85;0.80;;;20.60;30.50;;;;;;4806925;29;20095;-68
2021/01/16 12:48:56;;;;;;;1.00;0.40;;;20.60;30.40;;;;;;4775434;29;20034;-69
2021/01/16 12:51:22;;;;;;;1.75;0.22;;;20.60;30.40;;;;;;4815345;29;20038;-68
2021/01/16 12:53:47;;;;;;;0.47;0.47;;;20.60;30.70;;;;;;4806770;29;20034;-69
2021/01/16 12:56:22;;;;;;;0.05;0.05;;;20.60;30.70;;;;;;4822154;29;20045;-68
2021/01/16 12:58:49;;;;;;;0.25;0.25;;;20.60;30.70;;;;;;4819606;29;20540;-71
2021/01/16 13:01:15;;;;;;;0.10;0.10;;;20.60;30.50;;;;;;4785396;29;20078;-70
2021/01/16 13:03:40;;;;;;;1.17;0.50;;;20.60;30.50;;;;;;4805855;29;20515;-70